sensor_id;sensor_type;location;lat;lon;timestamp;pressure;altitude;pressure_sealevel;temperature;humidity
10093;BME280;5085;48.092;11.484;2022-07-29T00:01:28;95109.38;;;19.67;100.00
10093;BME280;5085;48.092;11.484;2022-07-29T00:03:54;95103.09;;;19.67;100.00
10093;BME280;5085;48.092;11.484;2022-07-29T00:06:20;95101.47;;;19.66;100.00
10093;BME280;5085;48.092;11.484;2022-07-29T00:08:46;95102.28;;;19.66;100.00
10093;BME280;5085;48.092;11.484;2022-07-29T00:11:12;95102.63;;;19.65;100.00
10093;BME280;5085;48.092;11.484;2022-07-29T00:13:37;95093.81;;;19.59;100.00
10093;BME280;5085;48.092;11.484;2022-07-29T00:16:03;95093.66;;;19.56;100.00
10093;BME280;5085;48.092;11.484;2022-07-29T00:18:28;95087.06;;;19.57;100.00
10093;BME280;5085;48.092;11.484;2022-07-29T00:20:54;95084.69;;;19.55;100.00
10093;BME280;5085;48.092;11.484;2022-07-29T00:23:19;95089.34;;;19.55;100.00
10093;BME280;5085;48.092;11.484;2022-07-29T00:25:45;95087.41;;;19.55;100.00
10093;BME280;5085;48.092;11.484;2022-07-29T00:28:10;95089.34;;;19.55;100.00
10093;BME280;5085;48.092;11.484;2022-07-29T00:30:35;95082.41;;;19.57;100.00
10093;BME280;5085;48.092;11.484;2022-07-29T00:33:01;95084.31;;;19.57;100.00
10093;BME280;5085;48.092;11.484;2022-07-29T00:35:26;95082.88;;;19.59;100.00
10093;BME280;5085;48.092;11.484;2022-07-29T00:38:14;95084.47;;;19.60;100.00
10093;BME280;5085;48.092;11.484;2022-07-29T00:40:41;95079.00;;;19.60;100.00
10093;BME280;5085;48.092;11.484;2022-07-29T00:43:07;95079.00;;;19.60;100.00
10093;BME280;5085;48.092;11.484;2022-07-29T00:45:33;95077.41;;;19.59;100.00
10093;BME280;5085;48.092;11.484;2022-07-29T00:47:58;95073.88;;;19.59;100.00
10093;BME280;5085;48.092;11.484;2022-07-29T00:50:24;95064.75;;;19.55;100.00
10093;BME280;5085;48.092;11.484;2022-07-29T00:52:50;95059.59;;;19.53;100.00
10093;BME280;5085;48.092;11.484;2022-07-29T00:55:17;95044.34;;;19.52;98.75
10093;BME280;5085;48.092;11.484;2022-07-29T00:57:43;95058.16;;;19.56;95.86
10093;BME280;5085;48.092;11.484;2022-07-29T01:00:14;95055.41;;;19.56;94.35
10093;BME280;5085;48.092;11.484;2022-07-29T01:02:40;95057.00;;;19.57;93.93
10093;BME280;5085;48.092;11.484;2022-07-29T01:05:06;95044.63;;;19.59;93.45
10093;BME280;5085;48.092;11.484;2022-07-29T01:07:35;95037.22;;;19.60;92.48
10093;BME280;5085;48.092;11.484;2022-07-29T01:10:06;95027.91;;;19.61;91.21
10093;BME280;5085;48.092;11.484;2022-07-29T01:12:33;95030.31;;;19.62;91.81
10093;BME280;5085;48.092;11.484;2022-07-29T01:15:01;95039.44;;;19.66;91.18
10093;BME280;5085;48.092;11.484;2022-07-29T01:17:44;95042.16;;;19.66;91.20
10093;BME280;5085;48.092;11.484;2022-07-29T01:28:38;95042.06;;;19.63;93.80
10093;BME280;5085;48.092;11.484;2022-07-29T01:31:06;95045.09;;;19.61;92.88
10093;BME280;5085;48.092;11.484;2022-07-29T01:33:38;95035.63;;;19.59;93.30
10093;BME280;5085;48.092;11.484;2022-07-29T01:36:45;95034.69;;;19.55;93.98
10093;BME280;5085;48.092;11.484;2022-07-29T01:39:18;95026.03;;;19.53;95.47
10093;BME280;5085;48.092;11.484;2022-07-29T01:42:02;95037.63;;;19.49;96.35
10093;BME280;5085;48.092;11.484;2022-07-29T01:45:20;95042.63;;;19.47;97.72
10093;BME280;5085;48.092;11.484;2022-07-29T01:50:20;95032.22;;;19.41;98.17
10093;BME280;5085;48.092;11.484;2022-07-29T01:53:00;95030.19;;;19.38;98.65
10093;BME280;5085;48.092;11.484;2022-07-29T01:55:31;95032.41;;;19.36;98.91
10093;BME280;5085;48.092;11.484;2022-07-29T01:57:59;95023.28;;;19.32;99.40
10093;BME280;5085;48.092;11.484;2022-07-29T02:00:26;95031.03;;;19.30;100.00
10093;BME280;5085;48.092;11.484;2022-07-29T02:02:53;95025.88;;;19.28;100.00
10093;BME280;5085;48.092;11.484;2022-07-29T02:05:21;95021.91;;;19.26;100.00
10093;BME280;5085;48.092;11.484;2022-07-29T02:07:49;95017.59;;;19.25;100.00
10093;BME280;5085;48.092;11.484;2022-07-29T02:10:18;95019.03;;;19.22;100.00
10093;BME280;5085;48.092;11.484;2022-07-29T02:12:45;95017.31;;;19.17;100.00
10093;BME280;5085;48.092;11.484;2022-07-29T02:15:13;95017.66;;;19.16;100.00
10093;BME280;5085;48.092;11.484;2022-07-29T02:17:46;95011.91;;;19.09;100.00
10093;BME280;5085;48.092;11.484;2022-07-29T02:20:14;95010.97;;;19.05;100.00
10093;BME280;5085;48.092;11.484;2022-07-29T02:22:41;95013.09;;;18.99;100.00
10093;BME280;5085;48.092;11.484;2022-07-29T02:25:09;95005.41;;;18.92;100.00
10093;BME280;5085;48.092;11.484;2022-07-29T02:27:37;94998.56;;;18.86;100.00
10093;BME280;5085;48.092;11.484;2022-07-29T02:30:05;94994.06;;;18.82;100.00
10093;BME280;5085;48.092;11.484;2022-07-29T02:32:31;94987.22;;;18.76;100.00
10093;BME280;5085;48.092;11.484;2022-07-29T02:35:00;94995.88;;;18.69;100.00
10093;BME280;5085;48.092;11.484;2022-07-29T02:37:27;94985.03;;;18.60;100.00
10093;BME280;5085;48.092;11.484;2022-07-29T02:39:54;94989.41;;;18.53;100.00
10093;BME280;5085;48.092;11.484;2022-07-29T02:42:21;94985.91;;;18.43;100.00
10093;BME280;5085;48.092;11.484;2022-07-29T02:44:48;94988.66;;;18.35;100.00
10093;BME280;5085;48.092;11.484;2022-07-29T02:50:06;94991.34;;;18.14;100.00
10093;BME280;5085;48.092;11.484;2022-07-29T02:52:53;94987.03;;;18.04;100.00
10093;BME280;5085;48.092;11.484;2022-07-29T02:55:26;94979.00;;;18.08;100.00
10093;BME280;5085;48.092;11.484;2022-07-29T03:00:46;94982.91;;;17.89;100.00
10093;BME280;5085;48.092;11.484;2022-07-29T03:03:15;94979.22;;;17.85;100.00
10093;BME280;5085;48.092;11.484;2022-07-29T03:05:41;94984.38;;;17.78;100.00
10093;BME280;5085;48.092;11.484;2022-07-29T03:08:09;94980.34;;;17.67;100.00
10093;BME280;5085;48.092;11.484;2022-07-29T03:10:37;94978.91;;;17.61;100.00
10093;BME280;5085;48.092;11.484;2022-07-29T03:13:04;94978.28;;;17.55;100.00
10093;BME280;5085;48.092;11.484;2022-07-29T03:15:31;94974.91;;;17.49;100.00
10093;BME280;5085;48.092;11.484;2022-07-29T03:17:58;94976.69;;;17.45;100.00
10093;BME280;5085;48.092;11.484;2022-07-29T03:20:25;94981.16;;;17.41;100.00
10093;BME280;5085;48.092;11.484;2022-07-29T03:22:51;94971.91;;;17.34;100.00
10093;BME280;5085;48.092;11.484;2022-07-29T03:25:19;94972.38;;;17.27;100.00
10093;BME280;5085;48.092;11.484;2022-07-29T03:27:45;94980.09;;;17.25;100.00
10093;BME280;5085;48.092;11.484;2022-07-29T03:30:13;94969.34;;;17.20;100.00
10093;BME280;5085;48.092;11.484;2022-07-29T03:32:39;94980.88;;;17.17;100.00
10093;BME280;5085;48.092;11.484;2022-07-29T03:35:05;94975.75;;;17.15;100.00
10093;BME280;5085;48.092;11.484;2022-07-29T03:37:31;94983.44;;;17.13;100.00
10093;BME280;5085;48.092;11.484;2022-07-29T03:39:59;94987.13;;;17.09;100.00
10093;BME280;5085;48.092;11.484;2022-07-29T03:42:28;94984.22;;;17.05;100.00
10093;BME280;5085;48.092;11.484;2022-07-29T03:44:57;94987.56;;;17.02;100.00
10093;BME280;5085;48.092;11.484;2022-07-29T03:47:25;94982.94;;;17.03;100.00
10093;BME280;5085;48.092;11.484;2022-07-29T03:49:56;94982.81;;;17.08;100.00
10093;BME280;5085;48.092;11.484;2022-07-29T03:52:25;94986.63;;;17.15;100.00
10093;BME280;5085;48.092;11.484;2022-07-29T03:54:50;94988.25;;;17.25;100.00
10093;BME280;5085;48.092;11.484;2022-07-29T03:57:16;94991.28;;;17.32;100.00
10093;BME280;5085;48.092;11.484;2022-07-29T03:59:43;94989.03;;;17.43;100.00
10093;BME280;5085;48.092;11.484;2022-07-29T04:02:10;94989.03;;;17.52;100.00
10093;BME280;5085;48.092;11.484;2022-07-29T04:04:36;94982.78;;;17.51;100.00
10093;BME280;5085;48.092;11.484;2022-07-29T04:07:03;94978.94;;;17.52;100.00
10093;BME280;5085;48.092;11.484;2022-07-29T04:09:28;94975.88;;;17.54;100.00
10093;BME280;5085;48.092;11.484;2022-07-29T04:11:54;94976.84;;;17.58;100.00
10093;BME280;5085;48.092;11.484;2022-07-29T04:14:19;94981.03;;;17.55;100.00
10093;BME280;5085;48.092;11.484;2022-07-29T04:16:46;94976.69;;;17.63;100.00
10093;BME280;5085;48.092;11.484;2022-07-29T04:19:11;94986.94;;;17.74;100.00
10093;BME280;5085;48.092;11.484;2022-07-29T04:21:38;94987.56;;;17.89;100.00
10093;BME280;5085;48.092;11.484;2022-07-29T04:24:05;94996.66;;;18.02;100.00
10093;BME280;5085;48.092;11.484;2022-07-29T04:26:31;94991.34;;;18.14;100.00
10093;BME280;5085;48.092;11.484;2022-07-29T04:28:56;95004.91;;;18.31;100.00
10093;BME280;5085;48.092;11.484;2022-07-29T04:31:21;95004.03;;;18.48;100.00
10093;BME280;5085;48.092;11.484;2022-07-29T04:33:47;95013.25;;;18.64;100.00
10093;BME280;5085;48.092;11.484;2022-07-29T04:36:12;95017.38;;;18.79;100.00
10093;BME280;5085;48.092;11.484;2022-07-29T04:38:38;95014.13;;;18.86;100.00
10093;BME280;5085;48.092;11.484;2022-07-29T04:41:04;95020.84;;;18.88;100.00
10093;BME280;5085;48.092;11.484;2022-07-29T04:43:30;95017.47;;;18.91;100.00
10093;BME280;5085;48.092;11.484;2022-07-29T04:45:55;95023.06;;;18.95;100.00
10093;BME280;5085;48.092;11.484;2022-07-29T04:48:20;95030.94;;;18.96;100.00
10093;BME280;5085;48.092;11.484;2022-07-29T04:50:46;95033.16;;;18.94;100.00
10093;BME280;5085;48.092;11.484;2022-07-29T04:53:11;95037.38;;;18.92;100.00
10093;BME280;5085;48.092;11.484;2022-07-29T04:55:37;95033.38;;;18.89;100.00
10093;BME280;5085;48.092;11.484;2022-07-29T04:58:02;95035.94;;;18.86;100.00
10093;BME280;5085;48.092;11.484;2022-07-29T05:00:28;95035.84;;;18.82;100.00
10093;BME280;5085;48.092;11.484;2022-07-29T05:02:53;95036.00;;;18.77;100.00
10093;BME280;5085;48.092;11.484;2022-07-29T05:05:18;95040.06;;;18.71;100.00
10093;BME280;5085;48.092;11.484;2022-07-29T05:07:44;95043.59;;;18.63;100.00
10093;BME280;5085;48.092;11.484;2022-07-29T05:10:09;95041.69;;;18.55;100.00
10093;BME280;5085;48.092;11.484;2022-07-29T05:12:35;95055.50;;;18.49;100.00
10093;BME280;5085;48.092;11.484;2022-07-29T05:15:00;95050.25;;;18.44;100.00
10093;BME280;5085;48.092;11.484;2022-07-29T05:17:25;95052.31;;;18.39;100.00
10093;BME280;5085;48.092;11.484;2022-07-29T05:19:51;95054.25;;;18.38;100.00
10093;BME280;5085;48.092;11.484;2022-07-29T05:22:18;95055.38;;;18.37;100.00
10093;BME280;5085;48.092;11.484;2022-07-29T05:24:44;95052.03;;;18.40;100.00
10093;BME280;5085;48.092;11.484;2022-07-29T05:27:09;95052.00;;;18.49;100.00
10093;BME280;5085;48.092;11.484;2022-07-29T05:29:35;95048.09;;;18.59;100.00
10093;BME280;5085;48.092;11.484;2022-07-29T05:32:00;95065.41;;;18.71;100.00
10093;BME280;5085;48.092;11.484;2022-07-29T05:34:26;95061.03;;;18.79;100.00
10093;BME280;5085;48.092;11.484;2022-07-29T05:36:51;95057.94;;;18.89;100.00
10093;BME280;5085;48.092;11.484;2022-07-29T05:39:16;95060.94;;;18.96;100.00
10093;BME280;5085;48.092;11.484;2022-07-29T05:41:42;95062.84;;;19.05;100.00
10093;BME280;5085;48.092;11.484;2022-07-29T05:44:07;95061.84;;;19.09;100.00
10093;BME280;5085;48.092;11.484;2022-07-29T05:46:32;95067.44;;;19.13;100.00
10093;BME280;5085;48.092;11.484;2022-07-29T05:48:58;95065.31;;;19.18;100.00
10093;BME280;5085;48.092;11.484;2022-07-29T05:51:23;95068.78;;;19.28;100.00
10093;BME280;5085;48.092;11.484;2022-07-29T05:53:51;95067.63;;;19.37;100.00
10093;BME280;5085;48.092;11.484;2022-07-29T05:56:17;95057.88;;;19.48;100.00
10093;BME280;5085;48.092;11.484;2022-07-29T05:58:42;95057.34;;;19.55;100.00
10093;BME280;5085;48.092;11.484;2022-07-29T06:01:08;95069.84;;;19.65;100.00
10093;BME280;5085;48.092;11.484;2022-07-29T06:03:33;95062.22;;;19.70;100.00
10093;BME280;5085;48.092;11.484;2022-07-29T06:05:59;95064.78;;;19.76;100.00
10093;BME280;5085;48.092;11.484;2022-07-29T06:08:25;95067.75;;;19.83;100.00
10093;BME280;5085;48.092;11.484;2022-07-29T06:10:50;95066.44;;;19.89;100.00
10093;BME280;5085;48.092;11.484;2022-07-29T06:13:16;95068.28;;;19.97;100.00
10093;BME280;5085;48.092;11.484;2022-07-29T06:15:42;95073.31;;;20.07;100.00
10093;BME280;5085;48.092;11.484;2022-07-29T06:18:08;95075.63;;;20.17;100.00
10093;BME280;5085;48.092;11.484;2022-07-29T06:20:34;95067.00;;;20.28;97.89
10093;BME280;5085;48.092;11.484;2022-07-29T06:23:00;95070.91;;;20.39;97.61
10093;BME280;5085;48.092;11.484;2022-07-29T06:25:26;95074.50;;;20.52;98.39
10093;BME280;5085;48.092;11.484;2022-07-29T06:27:54;95080.72;;;20.73;96.70
10093;BME280;5085;48.092;11.484;2022-07-29T06:30:19;95076.50;;;21.00;96.85
10093;BME280;5085;48.092;11.484;2022-07-29T06:32:44;95075.09;;;21.31;95.77
10093;BME280;5085;48.092;11.484;2022-07-29T06:35:10;95078.84;;;21.63;93.44
10093;BME280;5085;48.092;11.484;2022-07-29T06:37:35;95089.50;;;21.92;88.94
10093;BME280;5085;48.092;11.484;2022-07-29T06:40:01;95082.09;;;22.21;86.03
10093;BME280;5085;48.092;11.484;2022-07-29T06:42:45;95086.06;;;22.52;85.10
10093;BME280;5085;48.092;11.484;2022-07-29T06:45:11;95087.06;;;22.75;81.21
10093;BME280;5085;48.092;11.484;2022-07-29T06:47:36;95085.75;;;23.01;80.81
10093;BME280;5085;48.092;11.484;2022-07-29T06:50:02;95089.72;;;23.35;78.95
10093;BME280;5085;48.092;11.484;2022-07-29T06:52:28;95091.09;;;23.60;74.75
10093;BME280;5085;48.092;11.484;2022-07-29T06:54:54;95100.72;;;23.86;73.59
10093;BME280;5085;48.092;11.484;2022-07-29T06:57:21;95095.66;;;24.07;70.71
10093;BME280;5085;48.092;11.484;2022-07-29T06:59:46;95101.09;;;24.23;68.50
10093;BME280;5085;48.092;11.484;2022-07-29T07:02:12;95101.38;;;24.37;69.47
10093;BME280;5085;48.092;11.484;2022-07-29T07:04:38;95111.38;;;24.65;69.50
10093;BME280;5085;48.092;11.484;2022-07-29T07:07:03;95107.97;;;24.94;70.22
10093;BME280;5085;48.092;11.484;2022-07-29T07:09:29;95106.53;;;25.27;67.42
10093;BME280;5085;48.092;11.484;2022-07-29T07:11:54;95099.50;;;25.56;64.37
10093;BME280;5085;48.092;11.484;2022-07-29T07:14:19;95106.91;;;25.75;62.54
10093;BME280;5085;48.092;11.484;2022-07-29T07:16:45;95112.41;;;26.02;61.79
10093;BME280;5085;48.092;11.484;2022-07-29T07:19:10;95108.00;;;26.27;61.13
10093;BME280;5085;48.092;11.484;2022-07-29T07:21:36;95102.50;;;26.61;60.42
10093;BME280;5085;48.092;11.484;2022-07-29T07:24:01;95102.81;;;26.93;59.48
10093;BME280;5085;48.092;11.484;2022-07-29T07:26:27;95100.72;;;27.20;56.76
10093;BME280;5085;48.092;11.484;2022-07-29T07:28:52;95101.66;;;27.38;53.83
10093;BME280;5085;48.092;11.484;2022-07-29T07:31:18;95100.59;;;27.54;53.98
10093;BME280;5085;48.092;11.484;2022-07-29T07:33:43;95099.91;;;27.71;53.77
10093;BME280;5085;48.092;11.484;2022-07-29T07:36:08;95097.25;;;27.85;50.83
10093;BME280;5085;48.092;11.484;2022-07-29T07:38:34;95095.38;;;28.00;52.61
10093;BME280;5085;48.092;11.484;2022-07-29T07:41:00;95103.69;;;28.04;50.33
10093;BME280;5085;48.092;11.484;2022-07-29T07:43:25;95110.53;;;28.28;50.50
10093;BME280;5085;48.092;11.484;2022-07-29T07:45:50;95114.63;;;28.55;49.51
10093;BME280;5085;48.092;11.484;2022-07-29T07:48:16;95115.09;;;28.86;48.97
10093;BME280;5085;48.092;11.484;2022-07-29T07:50:42;95102.09;;;29.08;48.44
10093;BME280;5085;48.092;11.484;2022-07-29T07:53:08;95106.47;;;29.34;46.00
10093;BME280;5085;48.092;11.484;2022-07-29T07:55:40;95107.69;;;29.58;46.34
10093;BME280;5085;48.092;11.484;2022-07-29T07:58:05;95114.81;;;29.66;45.55
10093;BME280;5085;48.092;11.484;2022-07-29T08:00:31;95110.38;;;29.94;45.00
10093;BME280;5085;48.092;11.484;2022-07-29T08:02:58;95111.16;;;30.19;45.17
10093;BME280;5085;48.092;11.484;2022-07-29T08:05:23;95116.19;;;30.49;44.56
10093;BME280;5085;48.092;11.484;2022-07-29T08:07:49;95109.66;;;30.92;43.42
10093;BME280;5085;48.092;11.484;2022-07-29T08:10:16;95114.56;;;31.36;41.63
10093;BME280;5085;48.092;11.484;2022-07-29T08:13:06;95125.09;;;31.59;42.58
10093;BME280;5085;48.092;11.484;2022-07-29T08:15:32;95119.03;;;31.68;41.43
10093;BME280;5085;48.092;11.484;2022-07-29T08:17:58;95109.66;;;31.96;40.35
10093;BME280;5085;48.092;11.484;2022-07-29T08:20:23;95119.47;;;32.45;40.32
10093;BME280;5085;48.092;11.484;2022-07-29T08:22:49;95114.81;;;33.00;39.65
10093;BME280;5085;48.092;11.484;2022-07-29T08:25:14;95110.00;;;33.54;39.01
10093;BME280;5085;48.092;11.484;2022-07-29T08:27:40;95109.88;;;33.85;37.15
10093;BME280;5085;48.092;11.484;2022-07-29T08:30:06;95106.31;;;34.28;36.54
10093;BME280;5085;48.092;11.484;2022-07-29T08:32:33;95116.44;;;34.81;36.24
10093;BME280;5085;48.092;11.484;2022-07-29T08:34:58;95121.25;;;34.81;35.52
10093;BME280;5085;48.092;11.484;2022-07-29T08:37:23;95114.50;;;34.39;35.94
10093;BME280;5085;48.092;11.484;2022-07-29T08:39:49;95117.06;;;33.86;36.57
10093;BME280;5085;48.092;11.484;2022-07-29T08:42:14;95115.84;;;33.37;37.19
10093;BME280;5085;48.092;11.484;2022-07-29T08:44:42;95110.78;;;32.70;38.48
10093;BME280;5085;48.092;11.484;2022-07-29T08:47:07;95113.50;;;32.09;40.67
10093;BME280;5085;48.092;11.484;2022-07-29T08:49:34;95113.56;;;31.60;41.90
10093;BME280;5085;48.092;11.484;2022-07-29T08:52:01;95114.97;;;31.27;42.22
10093;BME280;5085;48.092;11.484;2022-07-29T08:54:27;95111.59;;;30.98;40.98
10093;BME280;5085;48.092;11.484;2022-07-29T08:56:54;95122.41;;;30.82;41.59
10093;BME280;5085;48.092;11.484;2022-07-29T08:59:20;95126.56;;;31.19;41.62
10093;BME280;5085;48.092;11.484;2022-07-29T09:01:48;95123.50;;;31.58;41.67
10093;BME280;5085;48.092;11.484;2022-07-29T09:04:14;95120.00;;;31.99;41.58
10093;BME280;5085;48.092;11.484;2022-07-29T09:06:49;95131.72;;;32.55;40.73
10093;BME280;5085;48.092;11.484;2022-07-29T09:09:16;95123.44;;;33.09;39.22
10093;BME280;5085;48.092;11.484;2022-07-29T09:11:43;95139.25;;;33.97;37.44
10093;BME280;5085;48.092;11.484;2022-07-29T09:14:11;95142.19;;;34.93;35.67
10093;BME280;5085;48.092;11.484;2022-07-29T09:16:47;95137.63;;;35.55;35.04
10093;BME280;5085;48.092;11.484;2022-07-29T09:19:23;95135.19;;;35.90;34.14
10093;BME280;5085;48.092;11.484;2022-07-29T09:21:49;95127.91;;;36.96;33.75
10093;BME280;5085;48.092;11.484;2022-07-29T09:24:38;95124.53;;;38.03;31.51
10093;BME280;5085;48.092;11.484;2022-07-29T09:32:23;95126.22;;;35.95;33.71
10093;BME280;5085;48.092;11.484;2022-07-29T09:34:49;95131.78;;;35.29;34.65
10093;BME280;5085;48.092;11.484;2022-07-29T09:37:28;95123.09;;;34.08;35.62
10093;BME280;5085;48.092;11.484;2022-07-29T09:39:53;95112.13;;;32.93;37.55
10093;BME280;5085;48.092;11.484;2022-07-29T09:42:28;95113.31;;;31.89;39.82
10093;BME280;5085;48.092;11.484;2022-07-29T09:44:53;95116.28;;;31.12;41.08
10093;BME280;5085;48.092;11.484;2022-07-29T09:47:19;95116.94;;;30.64;42.56
10093;BME280;5085;48.092;11.484;2022-07-29T09:49:57;95117.81;;;30.40;44.09
10093;BME280;5085;48.092;11.484;2022-07-29T09:52:24;95103.94;;;30.36;43.44
10093;BME280;5085;48.092;11.484;2022-07-29T09:54:49;95112.75;;;30.17;43.07
10093;BME280;5085;48.092;11.484;2022-07-29T09:57:27;95107.28;;;29.74;44.67
10093;BME280;5085;48.092;11.484;2022-07-29T09:59:57;95105.69;;;29.41;45.14
10093;BME280;5085;48.092;11.484;2022-07-29T10:02:28;95113.94;;;29.01;46.94
10093;BME280;5085;48.092;11.484;2022-07-29T10:04:54;95103.94;;;28.57;46.63
10093;BME280;5085;48.092;11.484;2022-07-29T10:07:20;95105.06;;;28.38;46.89
10093;BME280;5085;48.092;11.484;2022-07-29T10:09:57;95109.72;;;28.27;48.71
10093;BME280;5085;48.092;11.484;2022-07-29T10:12:23;95109.34;;;28.25;49.04
10093;BME280;5085;48.092;11.484;2022-07-29T10:14:50;95110.59;;;28.38;49.24
10093;BME280;5085;48.092;11.484;2022-07-29T10:17:16;95109.81;;;28.42;49.61
10093;BME280;5085;48.092;11.484;2022-07-29T10:19:42;95110.94;;;28.30;49.80
10093;BME280;5085;48.092;11.484;2022-07-29T10:22:09;95106.16;;;28.27;49.25
10093;BME280;5085;48.092;11.484;2022-07-29T10:24:37;95103.38;;;28.23;49.24
10093;BME280;5085;48.092;11.484;2022-07-29T10:27:04;95107.75;;;28.21;50.27
10093;BME280;5085;48.092;11.484;2022-07-29T10:29:30;95113.31;;;28.31;50.02
10093;BME280;5085;48.092;11.484;2022-07-29T10:34:56;95109.91;;;28.74;48.53
10093;BME280;5085;48.092;11.484;2022-07-29T10:37:37;95104.06;;;29.18;48.83
10093;BME280;5085;48.092;11.484;2022-07-29T10:43:09;95101.38;;;31.89;45.05
10093;BME280;5085;48.092;11.484;2022-07-29T10:45:39;95102.28;;;33.86;40.50
10093;BME280;5085;48.092;11.484;2022-07-29T10:48:05;95104.44;;;35.53;36.49
10093;BME280;5085;48.092;11.484;2022-07-29T10:50:54;95097.28;;;36.72;33.55
10093;BME280;5085;48.092;11.484;2022-07-29T10:53:21;95115.22;;;37.68;33.13
10093;BME280;5085;48.092;11.484;2022-07-29T10:55:47;95109.03;;;38.33;31.78
10093;BME280;5085;48.092;11.484;2022-07-29T10:58:20;95105.72;;;39.22;30.24
10093;BME280;5085;48.092;11.484;2022-07-29T11:00:47;95095.59;;;39.12;30.07
10093;BME280;5085;48.092;11.484;2022-07-29T11:03:48;95102.91;;;38.35;31.54
10093;BME280;5085;48.092;11.484;2022-07-29T11:06:15;95103.69;;;38.35;32.07
10093;BME280;5085;48.092;11.484;2022-07-29T11:08:41;95102.28;;;39.28;28.81
10093;BME280;5085;48.092;11.484;2022-07-29T11:13:45;95111.28;;;39.13;29.90
10093;BME280;5085;48.092;11.484;2022-07-29T11:16:16;95105.94;;;39.46;28.80
10093;BME280;5085;48.092;11.484;2022-07-29T11:21:35;95103.66;;;39.63;26.63
10093;BME280;5085;48.092;11.484;2022-07-29T11:24:19;95110.25;;;38.98;28.00
10093;BME280;5085;48.092;11.484;2022-07-29T11:29:31;95088.63;;;38.29;28.69
10093;BME280;5085;48.092;11.484;2022-07-29T11:32:09;95083.78;;;38.95;28.89
10093;BME280;5085;48.092;11.484;2022-07-29T11:34:35;95078.09;;;38.64;28.23
10093;BME280;5085;48.092;11.484;2022-07-29T11:39:30;95076.78;;;37.52;30.16
10093;BME280;5085;48.092;11.484;2022-07-29T11:44:58;95072.03;;;37.62;30.17
10093;BME280;5085;48.092;11.484;2022-07-29T11:47:26;95076.16;;;37.95;30.92
10093;BME280;5085;48.092;11.484;2022-07-29T11:49:53;95071.56;;;38.23;30.63
10093;BME280;5085;48.092;11.484;2022-07-29T11:52:19;95081.19;;;38.00;30.50
10093;BME280;5085;48.092;11.484;2022-07-29T11:54:48;95072.84;;;37.49;28.69
10093;BME280;5085;48.092;11.484;2022-07-29T11:57:18;95067.38;;;37.81;30.89
10093;BME280;5085;48.092;11.484;2022-07-29T11:59:45;95068.84;;;38.33;29.90
10093;BME280;5085;48.092;11.484;2022-07-29T12:02:12;95075.00;;;38.40;29.43
10093;BME280;5085;48.092;11.484;2022-07-29T12:04:56;95060.47;;;37.60;28.24
10093;BME280;5085;48.092;11.484;2022-07-29T12:07:32;95056.78;;;36.99;28.98
10093;BME280;5085;48.092;11.484;2022-07-29T12:09:58;95056.97;;;36.79;30.91
10093;BME280;5085;48.092;11.484;2022-07-29T12:12:24;95051.16;;;36.44;31.59
10093;BME280;5085;48.092;11.484;2022-07-29T12:14:50;95057.41;;;36.36;32.82
10093;BME280;5085;48.092;11.484;2022-07-29T12:17:30;95061.22;;;36.29;31.11
10093;BME280;5085;48.092;11.484;2022-07-29T12:19:56;95056.34;;;35.55;32.42
10093;BME280;5085;48.092;11.484;2022-07-29T12:22:27;95049.25;;;35.18;33.89
10093;BME280;5085;48.092;11.484;2022-07-29T12:24:54;95046.19;;;35.12;33.84
10093;BME280;5085;48.092;11.484;2022-07-29T12:27:19;95043.31;;;34.96;34.26
10093;BME280;5085;48.092;11.484;2022-07-29T12:29:55;95038.53;;;34.60;34.13
10093;BME280;5085;48.092;11.484;2022-07-29T12:32:20;95038.03;;;35.01;34.04
10093;BME280;5085;48.092;11.484;2022-07-29T12:34:46;95043.91;;;35.40;33.57
10093;BME280;5085;48.092;11.484;2022-07-29T12:37:11;95042.84;;;35.34;34.68
10093;BME280;5085;48.092;11.484;2022-07-29T12:39:37;95035.25;;;35.01;34.70
10093;BME280;5085;48.092;11.484;2022-07-29T12:42:13;95035.13;;;34.89;33.88
10093;BME280;5085;48.092;11.484;2022-07-29T12:44:49;95030.84;;;34.44;35.68
10093;BME280;5085;48.092;11.484;2022-07-29T12:47:16;95031.66;;;34.05;35.94
10093;BME280;5085;48.092;11.484;2022-07-29T12:49:43;95033.91;;;33.47;35.67
10093;BME280;5085;48.092;11.484;2022-07-29T12:52:32;95032.00;;;32.90;36.63
10093;BME280;5085;48.092;11.484;2022-07-29T12:54:58;95030.78;;;32.33;37.94
10093;BME280;5085;48.092;11.484;2022-07-29T12:57:23;95032.91;;;31.88;38.60
10093;BME280;5085;48.092;11.484;2022-07-29T13:00:07;95025.06;;;31.34;40.79
10093;BME280;5085;48.092;11.484;2022-07-29T13:02:33;95021.41;;;30.92;41.79
10093;BME280;5085;48.092;11.484;2022-07-29T13:05:01;95038.34;;;30.53;42.08
10093;BME280;5085;48.092;11.484;2022-07-29T13:07:29;95042.06;;;30.10;41.39
10093;BME280;5085;48.092;11.484;2022-07-29T13:10:15;95037.84;;;29.70;43.08
10093;BME280;5085;48.092;11.484;2022-07-29T13:15:28;95033.13;;;28.99;45.26
10093;BME280;5085;48.092;11.484;2022-07-29T13:17:53;95044.19;;;28.63;47.42
10093;BME280;5085;48.092;11.484;2022-07-29T13:20:18;95034.16;;;28.30;48.49
10093;BME280;5085;48.092;11.484;2022-07-29T13:22:48;95034.84;;;28.02;48.72
10093;BME280;5085;48.092;11.484;2022-07-29T13:25:13;95033.19;;;27.83;48.04
10093;BME280;5085;48.092;11.484;2022-07-29T13:27:39;95026.31;;;27.63;48.79
10093;BME280;5085;48.092;11.484;2022-07-29T13:30:09;95034.56;;;27.49;50.11
10093;BME280;5085;48.092;11.484;2022-07-29T13:32:35;95027.75;;;27.39;49.87
10093;BME280;5085;48.092;11.484;2022-07-29T13:35:06;95034.06;;;27.36;50.47
10093;BME280;5085;48.092;11.484;2022-07-29T13:37:32;95023.41;;;27.38;51.49
10093;BME280;5085;48.092;11.484;2022-07-29T13:39:59;95030.16;;;27.40;52.57
10093;BME280;5085;48.092;11.484;2022-07-29T13:42:25;95029.38;;;27.40;53.88
10093;BME280;5085;48.092;11.484;2022-07-29T13:44:51;95021.47;;;27.42;53.46